createdAt,value
2023-03-27T00:01:43.574Z,0.70
2023-03-27T00:04:12.134Z,0.60
2023-03-27T00:06:48.882Z,0.50
2023-03-27T00:09:19.967Z,0.60
2023-03-27T00:11:49.138Z,0.50
2023-03-27T00:14:17.853Z,0.50
2023-03-27T00:16:47.881Z,0.43
2023-03-27T00:19:16.982Z,0.40
2023-03-27T00:21:46.141Z,0.50
2023-03-27T00:24:15.945Z,0.30
2023-03-27T00:26:44.583Z,0.50
2023-03-27T00:29:14.161Z,0.40
2023-03-27T00:31:42.604Z,0.50
2023-03-27T00:34:13.467Z,0.40
2023-03-27T00:36:43.771Z,0.30
2023-03-27T00:39:12.262Z,0.30
2023-03-27T00:41:40.692Z,0.40
2023-03-27T00:44:25.382Z,0.30
2023-03-27T00:46:57.114Z,0.30
2023-03-27T00:49:30.013Z,0.30
2023-03-27T00:51:59.241Z,0.38
2023-03-27T00:54:32.287Z,0.40
2023-03-27T00:57:06.180Z,0.40
2023-03-27T00:59:40.080Z,0.30
2023-03-27T01:02:10.171Z,0.35
2023-03-27T01:04:41.400Z,0.50
2023-03-27T01:07:11.978Z,0.20
2023-03-27T01:09:40.569Z,0.35
2023-03-27T01:12:21.479Z,0.32
2023-03-27T01:15:07.451Z,0.30
2023-03-27T01:17:51.874Z,0.30
2023-03-27T01:21:19.503Z,0.32
2023-03-27T01:24:52.435Z,0.40
2023-03-27T01:27:25.854Z,0.40
2023-03-27T01:30:12.052Z,0.50
2023-03-27T01:33:30.278Z,0.40
2023-03-27T01:36:26.599Z,0.35
2023-03-27T01:39:19.879Z,0.47
2023-03-27T01:41:56.854Z,0.30
2023-03-27T01:44:36.434Z,0.40
2023-03-27T01:47:21.667Z,0.40
2023-03-27T01:49:56.690Z,0.40
2023-03-27T01:52:31.128Z,0.50
2023-03-27T01:55:05.667Z,0.40
2023-03-27T01:57:49.335Z,0.30
2023-03-27T02:00:23.268Z,0.40
2023-03-27T02:02:58.285Z,0.40
2023-03-27T02:05:35.780Z,0.40
2023-03-27T02:08:13.800Z,0.40
2023-03-27T02:10:49.027Z,0.40
2023-03-27T02:13:21.733Z,0.40
2023-03-27T02:15:51.918Z,0.30
2023-03-27T02:18:27.754Z,0.50
2023-03-27T02:20:56.538Z,0.30
2023-03-27T02:23:25.098Z,0.30
2023-03-27T02:25:55.488Z,0.55
2023-03-27T02:28:47.901Z,0.50
2023-03-27T02:31:41.513Z,0.40
2023-03-27T02:34:46.805Z,0.30
2023-03-27T02:37:32.372Z,0.40
2023-03-27T02:40:15.172Z,0.40
2023-03-27T02:43:01.138Z,0.40
2023-03-27T02:45:42.198Z,0.32
2023-03-27T02:48:17.890Z,0.30
2023-03-27T02:50:53.402Z,0.40
2023-03-27T02:53:25.556Z,0.50
2023-03-27T02:55:57.516Z,0.30
2023-03-27T02:58:36.473Z,0.40
2023-03-27T03:01:09.617Z,0.55
2023-03-27T03:03:43.743Z,0.50
2023-03-27T03:06:14.556Z,0.88
2023-03-27T03:08:43.296Z,0.50
2023-03-27T03:11:15.148Z,0.57
2023-03-27T03:13:44.960Z,0.68
2023-03-27T03:16:13.528Z,0.60
2023-03-27T03:18:41.974Z,0.70
2023-03-27T03:21:10.716Z,0.70
2023-03-27T03:23:39.439Z,0.60
2023-03-27T03:26:08.785Z,0.80
2023-03-27T03:28:38.252Z,0.68
2023-03-27T03:31:10.923Z,0.80
2023-03-27T03:33:39.745Z,0.85
2023-03-27T03:36:09.816Z,0.70
2023-03-27T03:38:38.517Z,0.85
2023-03-27T03:41:08.114Z,0.80
2023-03-27T03:43:36.634Z,1.20
2023-03-27T03:46:05.589Z,0.95
2023-03-27T03:48:35.453Z,1.13
2023-03-27T03:51:03.984Z,0.60
2023-03-27T03:53:32.443Z,0.70
2023-03-27T03:56:01.788Z,0.60
2023-03-27T03:58:34.554Z,0.60
2023-03-27T04:01:04.015Z,0.60
2023-03-27T04:03:34.107Z,0.70
2023-03-27T04:06:05.683Z,0.70
2023-03-27T04:08:35.363Z,1.00
2023-03-27T04:11:04.464Z,1.10
2023-03-27T04:13:33.727Z,0.93
2023-03-27T04:16:02.564Z,2.03
2023-03-27T04:18:32.907Z,2.60
2023-03-27T04:21:03.353Z,2.70
2023-03-27T04:23:31.817Z,3.00
2023-03-27T04:26:02.071Z,3.10
2023-03-27T04:28:34.601Z,2.70
2023-03-27T04:31:06.440Z,3.03
2023-03-27T04:33:35.826Z,3.17
2023-03-27T04:36:07.817Z,2.70
2023-03-27T04:38:38.193Z,2.50
2023-03-27T04:41:07.412Z,3.67
2023-03-27T04:43:36.952Z,3.92
2023-03-27T04:46:07.349Z,4.55
2023-03-27T04:48:39.243Z,4.55
2023-03-27T04:51:09.720Z,4.40
2023-03-27T04:53:38.799Z,4.63
2023-03-27T04:56:09.837Z,3.92
2023-03-27T04:58:41.072Z,4.03
2023-03-27T05:01:10.337Z,3.90
2023-03-27T05:03:39.298Z,4.03
2023-03-27T05:06:10.601Z,3.92
2023-03-27T05:08:39.044Z,3.58
2023-03-27T05:11:07.849Z,3.80
2023-03-27T05:13:36.329Z,3.22
2023-03-27T05:16:05.584Z,3.33
2023-03-27T05:18:34.063Z,3.72
2023-03-27T05:21:02.586Z,4.47
2023-03-27T05:23:32.696Z,4.28
2023-03-27T05:26:03.657Z,4.18
2023-03-27T05:31:22.351Z,4.03
2023-03-27T05:33:51.713Z,4.45
2023-03-27T05:36:22.137Z,4.57
2023-03-27T05:38:53.205Z,5.07
2023-03-27T05:41:22.077Z,4.88
2023-03-27T05:43:51.708Z,6.00
2023-03-27T05:46:21.724Z,4.57
2023-03-27T05:48:50.962Z,4.65
2023-03-27T05:51:19.597Z,5.00
2023-03-27T05:53:48.092Z,4.63
2023-03-27T05:56:17.900Z,5.15
2023-03-27T05:58:50.498Z,5.20
2023-03-27T06:01:18.964Z,5.57
2023-03-27T06:03:49.417Z,5.85
2023-03-27T06:06:18.030Z,5.90
2023-03-27T06:08:46.461Z,5.93
2023-03-27T06:11:17.179Z,5.97
2023-03-27T06:13:45.737Z,6.15
2023-03-27T06:16:15.120Z,5.78
2023-03-27T06:18:43.553Z,6.22
2023-03-27T06:21:12.831Z,5.85
2023-03-27T06:23:41.683Z,5.50
2023-03-27T06:26:10.122Z,5.72
2023-03-27T06:28:41.242Z,6.05
2023-03-27T06:31:09.990Z,5.72
2023-03-27T06:33:40.683Z,5.93
2023-03-27T06:36:11.088Z,5.15
2023-03-27T06:38:39.672Z,5.22
2023-03-27T06:41:10.240Z,4.95
2023-03-27T06:43:40.102Z,4.65
2023-03-27T06:46:08.655Z,5.00
2023-03-27T06:48:37.749Z,4.78
2023-03-27T06:51:07.562Z,4.50
2023-03-27T06:53:38.234Z,4.30
2023-03-27T06:56:08.483Z,4.78
2023-03-27T06:58:37.409Z,4.20
2023-03-27T07:01:08.386Z,4.40
2023-03-27T07:03:37.655Z,3.17
2023-03-27T07:06:07.433Z,2.67
2023-03-27T07:08:36.482Z,3.03
2023-03-27T07:11:11.542Z,2.60
2023-03-27T07:13:42.689Z,2.10
2023-03-27T07:16:13.194Z,2.53
2023-03-27T07:18:42.311Z,2.45
2023-03-27T07:21:12.958Z,2.42
2023-03-27T07:23:41.543Z,2.30
2023-03-27T07:26:10.025Z,2.20
2023-03-27T07:28:39.554Z,2.40
2023-03-27T07:31:29.305Z,2.00
2023-03-27T07:34:02.655Z,2.30
2023-03-27T07:36:31.246Z,2.83
2023-03-27T07:39:00.974Z,2.20
2023-03-27T07:41:30.453Z,2.15
2023-03-27T07:43:59.001Z,2.30
2023-03-27T07:46:28.998Z,1.92
2023-03-27T07:48:58.021Z,1.70
2023-03-27T07:51:27.524Z,2.40
2023-03-27T07:53:58.763Z,2.00
2023-03-27T07:56:28.126Z,1.55
2023-03-27T07:58:56.572Z,1.83
2023-03-27T08:01:26.449Z,1.38
2023-03-27T08:03:57.430Z,2.00
2023-03-27T08:06:26.179Z,1.70
2023-03-27T08:08:55.326Z,2.30
2023-03-27T08:11:30.657Z,1.35
2023-03-27T08:14:00.095Z,1.50
2023-03-27T08:16:30.470Z,1.52
2023-03-27T08:19:01.812Z,1.30
2023-03-27T08:21:33.333Z,1.42
2023-03-27T08:24:05.228Z,1.60
2023-03-27T08:26:33.828Z,1.73
2023-03-27T08:29:02.304Z,1.40
2023-03-27T08:31:31.471Z,1.30
2023-03-27T08:34:01.483Z,1.20
2023-03-27T08:36:32.490Z,1.40
2023-03-27T08:39:03.006Z,1.67
2023-03-27T08:41:39.134Z,1.30
2023-03-27T08:44:12.529Z,1.70
2023-03-27T08:46:50.649Z,1.40
2023-03-27T08:49:22.258Z,1.48
2023-03-27T08:51:56.011Z,1.30
2023-03-27T08:54:27.217Z,1.40
2023-03-27T08:56:56.665Z,2.60
2023-03-27T08:59:29.470Z,1.52
2023-03-27T09:02:06.120Z,1.52
2023-03-27T09:04:48.647Z,1.33
2023-03-27T09:07:24.182Z,1.15
2023-03-27T09:10:01.947Z,1.30
2023-03-27T09:12:47.651Z,1.20
2023-03-27T09:15:22.498Z,1.52
2023-03-27T09:17:54.633Z,1.92
2023-03-27T09:20:32.111Z,1.70
2023-03-27T09:23:11.001Z,1.67
2023-03-27T09:25:42.769Z,1.58
2023-03-27T09:28:21.741Z,1.40
2023-03-27T09:30:50.205Z,2.53
2023-03-27T09:33:19.791Z,8.25
2023-03-27T09:35:49.721Z,3.22
2023-03-27T09:38:29.844Z,1.55
2023-03-27T09:41:02.952Z,1.20
2023-03-27T09:43:41.575Z,1.33
2023-03-27T09:46:11.624Z,1.70
2023-03-27T09:48:47.049Z,1.70
2023-03-27T09:51:39.344Z,1.95
2023-03-27T09:54:08.360Z,1.20
2023-03-27T09:56:39.734Z,1.30
2023-03-27T09:59:24.241Z,1.20
2023-03-27T10:01:54.815Z,1.98
2023-03-27T10:04:25.670Z,1.38
2023-03-27T10:07:02.535Z,1.60
2023-03-27T10:09:34.358Z,1.55
2023-03-27T10:12:12.247Z,1.50
2023-03-27T10:14:43.630Z,1.23
2023-03-27T10:17:24.309Z,1.30
2023-03-27T10:19:58.814Z,1.13
2023-03-27T10:22:32.458Z,1.15
2023-03-27T10:25:04.796Z,1.35
2023-03-27T10:27:36.443Z,2.00
2023-03-27T10:30:29.692Z,1.40
2023-03-27T10:32:58.211Z,1.35
2023-03-27T10:35:34.691Z,3.30
2023-03-27T10:38:12.653Z,1.55
2023-03-27T10:40:43.354Z,4.38
2023-03-27T10:43:15.594Z,1.92
2023-03-27T10:45:50.333Z,1.60
2023-03-27T10:48:43.273Z,1.45
2023-03-27T10:51:35.939Z,1.92
2023-03-27T10:54:16.827Z,1.70
2023-03-27T10:56:55.295Z,1.88
2023-03-27T10:59:41.083Z,1.95
2023-03-27T11:02:18.492Z,1.52
2023-03-27T11:04:53.068Z,1.33
2023-03-27T11:07:28.621Z,1.13
2023-03-27T11:10:05.020Z,1.40
2023-03-27T11:12:37.230Z,1.40
2023-03-27T11:15:14.135Z,1.27
2023-03-27T11:17:49.288Z,0.95
2023-03-27T11:20:26.247Z,1.20
2023-03-27T11:23:01.295Z,1.00
2023-03-27T11:25:41.250Z,1.17
2023-03-27T11:28:21.368Z,1.38
2023-03-27T11:30:57.393Z,1.10
2023-03-27T11:33:38.636Z,1.15
2023-03-27T11:36:29.982Z,1.20
2023-03-27T11:39:15.441Z,1.15
2023-03-27T11:41:51.037Z,1.40
2023-03-27T11:44:19.593Z,1.20
2023-03-27T11:47:10.223Z,1.30
2023-03-27T11:50:11.407Z,1.10
2023-03-27T11:52:53.660Z,1.40
2023-03-27T11:55:32.655Z,1.38
2023-03-27T11:58:19.183Z,1.30
2023-03-27T12:00:58.845Z,1.38
2023-03-27T12:04:19.618Z,1.30
2023-03-27T12:07:04.014Z,1.20
2023-03-27T12:09:47.738Z,1.00
2023-03-27T12:12:34.839Z,1.00
2023-03-27T12:15:24.210Z,1.40
2023-03-27T12:18:02.780Z,1.10
2023-03-27T12:21:06.613Z,0.90
2023-03-27T12:23:51.645Z,1.10
2023-03-27T12:26:43.730Z,1.20
2023-03-27T12:29:30.859Z,1.75
2023-03-27T12:32:18.112Z,1.00
2023-03-27T12:34:54.517Z,1.00
2023-03-27T12:37:30.162Z,1.55
2023-03-27T12:40:00.289Z,1.00
2023-03-27T12:42:52.003Z,1.20
2023-03-27T12:45:23.903Z,1.10
2023-03-27T12:48:18.989Z,1.00
2023-03-27T12:50:56.889Z,0.88
2023-03-27T12:53:56.443Z,1.10
2023-03-27T12:56:33.627Z,1.10
2023-03-27T12:59:06.537Z,1.17
2023-03-27T13:02:01.535Z,1.08
2023-03-27T13:05:26.980Z,1.10
2023-03-27T13:08:15.615Z,1.30
2023-03-27T13:10:57.952Z,1.30
2023-03-27T13:14:27.486Z,1.00
2023-03-27T13:17:35.849Z,0.90
2023-03-27T13:20:20.062Z,1.20
2023-03-27T13:23:11.983Z,0.98
2023-03-27T13:26:01.087Z,1.42
2023-03-27T13:28:37.254Z,1.20
2023-03-27T13:31:09.518Z,1.25
2023-03-27T13:34:12.619Z,1.33
2023-03-27T13:36:48.853Z,1.10
2023-03-27T13:39:24.087Z,1.35
2023-03-27T13:42:10.258Z,1.20
2023-03-27T13:44:58.923Z,1.25
2023-03-27T13:48:01.756Z,1.17
2023-03-27T13:51:24.514Z,1.00
2023-03-27T13:54:40.689Z,1.10
2023-03-27T13:57:28.641Z,1.38
2023-03-27T14:00:28.198Z,1.00
2023-03-27T14:04:03.436Z,1.15
2023-03-27T14:07:17.612Z,1.20
2023-03-27T14:10:11.506Z,1.40
2023-03-27T14:12:56.367Z,1.10
2023-03-27T14:16:01.471Z,1.10
2023-03-27T14:19:10.732Z,1.20
2023-03-27T14:21:53.761Z,1.30
2023-03-27T14:24:32.460Z,1.25
2023-03-27T14:27:04.217Z,1.40
2023-03-27T14:29:34.887Z,1.30
2023-03-27T14:32:05.166Z,1.45
2023-03-27T14:34:51.049Z,1.20
2023-03-27T14:37:32.138Z,1.58
2023-03-27T14:40:02.030Z,1.80
2023-03-27T14:42:33.574Z,1.38
2023-03-27T14:45:20.652Z,1.65
2023-03-27T14:47:53.048Z,1.40
2023-03-27T14:50:21.703Z,1.40
2023-03-27T14:52:54.557Z,1.10
2023-03-27T14:55:26.965Z,0.98
2023-03-27T14:58:02.463Z,1.15
2023-03-27T15:00:35.115Z,1.50
2023-03-27T15:03:08.837Z,1.35
2023-03-27T15:05:57.298Z,1.40
2023-03-27T15:08:28.986Z,1.75
2023-03-27T15:10:57.615Z,1.83
2023-03-27T15:13:33.826Z,1.70
2023-03-27T15:16:03.028Z,1.80
2023-03-27T15:18:36.335Z,1.55
2023-03-27T15:21:08.305Z,1.60
2023-03-27T15:23:43.551Z,1.85
2023-03-27T15:26:20.277Z,1.88
2023-03-27T15:29:04.391Z,1.60
2023-03-27T15:31:35.681Z,2.33
2023-03-27T15:34:09.309Z,1.40
2023-03-27T15:36:39.534Z,1.40
2023-03-27T15:39:08.465Z,1.67
2023-03-27T15:41:44.896Z,1.58
2023-03-27T15:44:19.881Z,1.67
2023-03-27T15:46:55.831Z,1.95
2023-03-27T15:49:29.729Z,1.90
2023-03-27T15:52:00.184Z,1.80
2023-03-27T15:54:33.273Z,1.80
2023-03-27T15:57:09.862Z,1.75
2023-03-27T15:59:52.576Z,1.80
2023-03-27T16:02:23.447Z,1.80
2023-03-27T16:04:55.060Z,1.60
2023-03-27T16:07:27.749Z,1.83
2023-03-27T16:09:59.804Z,1.75
2023-03-27T16:12:33.849Z,1.40
2023-03-27T16:15:08.148Z,1.75
2023-03-27T16:17:46.135Z,2.40
2023-03-27T16:20:37.375Z,1.75
2023-03-27T16:23:06.502Z,1.55
2023-03-27T16:25:35.116Z,1.63
2023-03-27T16:28:03.827Z,1.90
2023-03-27T16:30:36.386Z,1.60
2023-03-27T16:33:10.178Z,1.63
2023-03-27T16:35:38.862Z,1.30
2023-03-27T16:38:07.549Z,1.40
2023-03-27T16:40:36.713Z,1.20
2023-03-27T16:43:05.145Z,1.52
2023-03-27T16:45:36.060Z,1.77
2023-03-27T16:48:05.243Z,1.88
2023-03-27T16:50:35.097Z,1.30
2023-03-27T16:53:03.680Z,1.33
2023-03-27T16:55:32.085Z,1.40
2023-03-27T16:58:00.850Z,1.27
2023-03-27T17:00:29.289Z,1.83
2023-03-27T17:02:59.194Z,1.50
2023-03-27T17:05:33.805Z,1.50
2023-03-27T17:08:04.562Z,1.30
2023-03-27T17:10:34.482Z,1.80
2023-03-27T17:13:02.960Z,1.60
2023-03-27T17:15:31.614Z,1.85
2023-03-27T17:18:01.449Z,1.80
2023-03-27T17:20:30.173Z,1.90
2023-03-27T17:22:59.028Z,1.67
2023-03-27T17:25:27.941Z,2.20
2023-03-27T17:27:57.233Z,2.70
2023-03-27T17:30:38.055Z,1.48
2023-03-27T17:33:11.550Z,1.60
2023-03-27T17:35:40.647Z,2.03
2023-03-27T17:38:10.362Z,2.05
2023-03-27T17:40:41.479Z,2.65
2023-03-27T17:43:10.597Z,2.90
2023-03-27T17:45:41.837Z,2.53
2023-03-27T17:48:12.736Z,3.67
2023-03-27T17:50:41.543Z,3.08
2023-03-27T17:53:10.000Z,3.50
2023-03-27T17:55:39.087Z,13.70
2023-03-27T17:58:10.002Z,8.48
2023-03-27T18:00:39.396Z,4.78
2023-03-27T18:03:08.903Z,4.80
2023-03-27T18:05:40.124Z,3.10
2023-03-27T18:08:11.981Z,2.90
2023-03-27T18:10:45.506Z,2.00
2023-03-27T18:13:14.196Z,1.88
2023-03-27T18:15:42.900Z,1.55
2023-03-27T18:18:11.784Z,1.67
2023-03-27T18:20:41.908Z,1.40
2023-03-27T18:23:10.599Z,1.63
2023-03-27T18:25:41.986Z,2.22
2023-03-27T18:28:11.350Z,2.30
2023-03-27T18:30:40.173Z,2.50
2023-03-27T18:33:08.750Z,2.42
2023-03-27T18:35:37.552Z,2.20
2023-03-27T18:38:07.812Z,2.20
2023-03-27T18:40:36.775Z,1.42
2023-03-27T18:43:05.493Z,1.38
2023-03-27T18:45:34.795Z,1.30
2023-03-27T18:48:03.334Z,0.90
2023-03-27T18:50:32.061Z,1.00
2023-03-27T18:53:00.692Z,1.00
2023-03-27T18:55:31.087Z,0.90
2023-03-27T18:57:59.528Z,1.00
2023-03-27T19:00:27.997Z,1.38
2023-03-27T19:02:56.973Z,1.23
2023-03-27T19:05:25.629Z,1.10
2023-03-27T19:07:57.909Z,1.30
2023-03-27T19:10:26.623Z,1.35
2023-03-27T19:12:56.659Z,1.30
2023-03-27T19:15:25.086Z,1.40
2023-03-27T19:17:53.986Z,1.17
2023-03-27T19:20:22.704Z,1.35
2023-03-27T19:22:51.679Z,1.30
2023-03-27T19:25:21.532Z,0.90
2023-03-27T19:27:49.948Z,0.93
2023-03-27T19:30:19.969Z,1.30
2023-03-27T19:32:48.724Z,1.25
2023-03-27T19:35:17.321Z,1.30
2023-03-27T19:37:45.972Z,1.30
2023-03-27T19:40:15.409Z,1.10
2023-03-27T19:42:44.218Z,1.10
2023-03-27T19:45:13.123Z,1.00
2023-03-27T19:47:43.633Z,1.42
2023-03-27T19:50:14.534Z,1.58
2023-03-27T19:52:49.430Z,2.00
2023-03-27T19:55:25.569Z,1.80
2023-03-27T19:57:55.033Z,1.80
2023-03-27T20:00:23.701Z,1.30
2023-03-27T20:02:53.829Z,1.20
2023-03-27T20:05:22.457Z,1.80
2023-03-27T20:07:50.908Z,1.83
2023-03-27T20:10:20.310Z,1.77
2023-03-27T20:12:48.841Z,1.90
2023-03-27T20:15:17.536Z,1.95
2023-03-27T20:20:35.835Z,1.67
2023-03-27T20:23:04.360Z,2.22
2023-03-27T20:25:33.482Z,2.25
2023-03-27T20:28:03.055Z,1.58
2023-03-27T20:30:32.699Z,1.73
2023-03-27T20:33:03.178Z,1.20
2023-03-27T20:35:33.275Z,1.30
2023-03-27T20:38:05.729Z,1.30
2023-03-27T20:40:52.818Z,1.17
2023-03-27T20:43:23.151Z,1.33
2023-03-27T20:45:53.108Z,1.00
2023-03-27T20:48:22.179Z,1.23
2023-03-27T20:50:53.070Z,1.00
2023-03-27T20:53:30.472Z,1.00
2023-03-27T20:56:03.541Z,1.08
2023-03-27T20:58:34.770Z,1.33
2023-03-27T21:01:05.034Z,1.30
2023-03-27T21:03:35.110Z,1.30
2023-03-27T21:06:07.273Z,1.10
2023-03-27T21:08:37.592Z,1.40
2023-03-27T21:11:07.114Z,1.60
2023-03-27T21:13:35.867Z,1.50
2023-03-27T21:16:05.585Z,1.67
2023-03-27T21:18:34.298Z,1.60
2023-03-27T21:21:02.805Z,1.48
2023-03-27T21:23:31.387Z,1.40
2023-03-27T21:26:01.839Z,1.30
2023-03-27T21:28:30.702Z,1.88
2023-03-27T21:30:59.808Z,1.50
2023-03-27T21:33:28.243Z,1.58
2023-03-27T21:35:57.009Z,1.52
2023-03-27T21:38:25.676Z,1.50
2023-03-27T21:40:54.147Z,1.70
2023-03-27T21:43:24.319Z,1.50
2023-03-27T21:45:53.468Z,1.67
2023-03-27T21:48:22.015Z,1.50
2023-03-27T21:50:50.609Z,1.45
2023-03-27T21:53:19.050Z,1.85
2023-03-27T21:55:47.957Z,1.88
2023-03-27T21:58:16.429Z,2.22
2023-03-27T22:00:47.738Z,2.00
2023-03-27T22:03:16.691Z,1.88
2023-03-27T22:05:54.348Z,1.65
2023-03-27T22:08:29.828Z,1.63
2023-03-27T22:10:59.983Z,2.42
2023-03-27T22:13:28.812Z,2.00
2023-03-27T22:15:59.131Z,2.20
2023-03-27T22:18:28.283Z,2.90
2023-03-27T22:20:56.702Z,2.60
2023-03-27T22:23:25.351Z,2.22
2023-03-27T22:25:54.463Z,2.40
2023-03-27T22:28:22.893Z,1.77
2023-03-27T22:30:52.744Z,2.10
2023-03-27T22:33:22.790Z,2.33
2023-03-27T22:35:51.713Z,2.00
2023-03-27T22:38:20.219Z,2.13
2023-03-27T22:40:48.695Z,1.75
2023-03-27T22:43:23.119Z,2.20
2023-03-27T22:45:52.884Z,2.10
2023-03-27T22:48:22.721Z,1.60
2023-03-27T22:50:56.288Z,2.45
2023-03-27T22:53:28.652Z,2.22
2023-03-27T22:56:00.216Z,1.90
2023-03-27T22:58:29.907Z,2.05
2023-03-27T23:00:59.307Z,1.95
2023-03-27T23:03:29.547Z,2.00
2023-03-27T23:05:58.327Z,1.90
2023-03-27T23:08:29.316Z,2.15
2023-03-27T23:11:00.307Z,2.30
2023-03-27T23:13:31.818Z,1.80
2023-03-27T23:16:01.287Z,1.80
2023-03-27T23:18:31.554Z,1.95
2023-03-27T23:21:02.028Z,2.08
2023-03-27T23:23:32.864Z,1.77
2023-03-27T23:26:01.818Z,1.90
2023-03-27T23:28:34.185Z,1.92
2023-03-27T23:31:05.407Z,1.63
2023-03-27T23:33:38.988Z,1.90
2023-03-27T23:36:10.979Z,1.52
2023-03-27T23:38:41.937Z,1.83
2023-03-27T23:41:12.884Z,1.95
2023-03-27T23:43:41.375Z,1.77
2023-03-27T23:46:11.528Z,1.88
2023-03-27T23:48:43.799Z,1.83
2023-03-27T23:51:16.588Z,1.60
2023-03-27T23:53:45.534Z,1.75
2023-03-27T23:56:14.237Z,1.60
2023-03-27T23:58:42.774Z,1.75
